createdAt,value
2022-12-23T00:01:13.686Z,16.83
2022-12-23T00:03:40.170Z,17.05
2022-12-23T00:06:15.516Z,17.58
2022-12-23T00:08:43.161Z,18.55
2022-12-23T00:11:13.601Z,16.83
2022-12-23T00:13:58.875Z,18.45
2022-12-23T00:16:25.395Z,17.52
2022-12-23T00:18:53.034Z,18.35
2022-12-23T00:21:19.600Z,17.23
2022-12-23T00:23:48.508Z,16.65
2022-12-23T00:26:20.889Z,16.95
2022-12-23T00:28:47.452Z,16.35
2022-12-23T00:31:14.476Z,17.90
2022-12-23T00:33:46.427Z,17.27
2022-12-23T00:36:30.160Z,19.10
2022-12-23T00:39:17.333Z,17.10
2022-12-23T00:42:03.000Z,18.40
2022-12-23T00:44:29.421Z,18.38
2022-12-23T00:46:55.956Z,17.60
2022-12-23T00:49:41.007Z,17.50
2022-12-23T00:52:12.746Z,17.70
2022-12-23T00:54:39.280Z,17.90
2022-12-23T00:57:05.848Z,18.17
2022-12-23T00:59:33.292Z,18.15
2022-12-23T01:02:18.627Z,17.67
2022-12-23T01:05:03.808Z,17.48
2022-12-23T01:07:30.293Z,18.83
2022-12-23T01:09:56.657Z,19.00
2022-12-23T01:12:23.045Z,19.27
2022-12-23T01:14:49.560Z,20.08
2022-12-23T01:17:16.081Z,19.38
2022-12-23T01:19:42.611Z,19.58
2022-12-23T01:22:09.142Z,19.48
2022-12-23T01:24:35.719Z,19.42
2022-12-23T01:27:02.072Z,17.33
2022-12-23T01:29:29.002Z,17.45
2022-12-23T01:31:55.594Z,20.40
2022-12-23T01:34:22.394Z,19.88
2022-12-23T01:36:48.821Z,18.63
2022-12-23T01:39:15.306Z,20.85
2022-12-23T01:42:00.326Z,21.40
2022-12-23T01:45:00.664Z,20.95
2022-12-23T01:47:31.445Z,20.77
2022-12-23T01:50:03.970Z,20.88
2022-12-23T01:52:34.507Z,21.33
2022-12-23T01:55:02.162Z,20.42
2022-12-23T01:57:29.407Z,20.88
2022-12-23T02:00:14.159Z,20.30
2022-12-23T02:03:02.646Z,19.70
2022-12-23T02:05:29.553Z,21.17
2022-12-23T02:08:15.263Z,19.77
2022-12-23T02:11:11.389Z,22.05
2022-12-23T02:14:12.671Z,22.00
2022-12-23T02:16:50.444Z,20.65
2022-12-23T02:19:34.919Z,22.23
2022-12-23T02:22:35.342Z,21.80
2022-12-23T02:25:23.245Z,21.63
2022-12-23T02:28:04.207Z,20.83
2022-12-23T02:30:48.416Z,21.50
2022-12-23T02:33:39.009Z,22.20
2022-12-23T02:36:18.145Z,18.60
2022-12-23T02:39:06.765Z,21.65
2022-12-23T02:41:43.161Z,20.90
2022-12-23T02:44:29.862Z,20.52
2022-12-23T02:47:05.623Z,20.52
2022-12-23T02:49:40.028Z,21.15
2022-12-23T02:52:13.413Z,21.70
2022-12-23T02:54:48.587Z,22.00
2022-12-23T02:57:18.621Z,22.25
2022-12-23T02:59:49.003Z,21.60
2022-12-23T03:02:15.593Z,22.17
2022-12-23T03:04:42.534Z,22.55
2022-12-23T03:07:23.855Z,21.05
2022-12-23T03:10:24.564Z,22.25
2022-12-23T03:13:08.084Z,22.67
2022-12-23T03:15:47.330Z,22.58
2022-12-23T03:18:36.740Z,23.58
2022-12-23T03:21:16.596Z,23.85
2022-12-23T03:23:49.116Z,24.85
2022-12-23T03:26:27.079Z,23.73
2022-12-23T03:29:02.905Z,23.73
2022-12-23T03:31:31.531Z,23.45
2022-12-23T03:34:03.536Z,23.33
2022-12-23T03:36:47.323Z,24.55
2022-12-23T03:39:18.975Z,24.75
2022-12-23T03:41:52.479Z,24.35
2022-12-23T03:44:26.333Z,24.13
2022-12-23T03:47:01.410Z,23.42
2022-12-23T03:49:33.804Z,23.50
2022-12-23T03:52:05.778Z,24.27
2022-12-23T03:54:39.673Z,23.45
2022-12-23T03:57:07.341Z,24.50
2022-12-23T03:59:38.547Z,24.50
2022-12-23T04:02:32.633Z,22.33
2022-12-23T04:05:21.831Z,22.15
2022-12-23T04:08:06.983Z,22.98
2022-12-23T04:10:34.582Z,22.30
2022-12-23T04:13:01.553Z,24.83
2022-12-23T04:15:28.327Z,22.88
2022-12-23T04:17:56.105Z,23.20
2022-12-23T04:20:22.982Z,21.42
2022-12-23T04:22:49.737Z,20.92
2022-12-23T04:25:17.502Z,23.00
2022-12-23T04:27:44.339Z,24.08
2022-12-23T04:30:13.853Z,22.75
2022-12-23T04:32:41.603Z,24.88
2022-12-23T04:35:09.404Z,24.70
2022-12-23T04:37:36.027Z,24.60
2022-12-23T04:40:02.574Z,25.40
2022-12-23T04:42:28.978Z,24.27
2022-12-23T04:48:48.622Z,25.88
2022-12-23T04:51:15.175Z,24.77
2022-12-23T04:53:41.545Z,27.08
2022-12-23T04:56:08.139Z,30.13
2022-12-23T04:58:34.589Z,28.70
2022-12-23T05:01:05.975Z,30.58
2022-12-23T05:03:32.610Z,29.67
2022-12-23T05:05:59.135Z,31.35
2022-12-23T05:08:25.764Z,27.13
2022-12-23T05:10:52.476Z,28.95
2022-12-23T05:13:18.891Z,28.77
2022-12-23T05:15:46.806Z,27.23
2022-12-23T05:18:13.192Z,30.05
2022-12-23T05:20:39.593Z,28.02
2022-12-23T05:23:06.091Z,30.15
2022-12-23T05:25:34.108Z,31.70
2022-12-23T05:28:00.571Z,29.40
2022-12-23T05:30:27.015Z,30.52
2022-12-23T05:32:54.839Z,28.85
2022-12-23T05:35:22.733Z,30.15
2022-12-23T05:37:49.203Z,30.30
2022-12-23T05:40:21.525Z,30.55
2022-12-23T05:42:50.339Z,28.27
2022-12-23T05:45:16.869Z,27.95
2022-12-23T05:47:43.305Z,31.20
2022-12-23T05:50:09.900Z,30.38
2022-12-23T05:52:36.347Z,28.98
2022-12-23T05:55:03.107Z,30.08
2022-12-23T05:57:30.270Z,27.13
2022-12-23T05:59:56.637Z,30.27
2022-12-23T06:02:23.365Z,26.42
2022-12-23T06:04:50.179Z,29.30
2022-12-23T06:07:16.787Z,29.45
2022-12-23T06:09:43.367Z,27.45
2022-12-23T06:12:09.746Z,30.25
2022-12-23T06:14:36.238Z,28.23
2022-12-23T06:17:02.728Z,27.50
2022-12-23T06:19:29.179Z,28.02
2022-12-23T06:21:55.567Z,28.23
2022-12-23T06:24:22.338Z,27.08
2022-12-23T06:26:53.375Z,26.08
2022-12-23T06:29:23.109Z,26.63
2022-12-23T06:31:49.571Z,24.92
2022-12-23T06:34:16.019Z,28.23
2022-12-23T06:36:42.382Z,26.30
2022-12-23T06:39:10.287Z,26.45
2022-12-23T06:41:36.745Z,25.42
2022-12-23T06:44:03.201Z,25.20
2022-12-23T06:46:29.979Z,23.85
2022-12-23T06:48:56.397Z,22.20
2022-12-23T06:51:22.861Z,23.65
2022-12-23T06:53:49.246Z,23.10
2022-12-23T06:56:15.725Z,23.13
2022-12-23T06:58:42.077Z,22.48
2022-12-23T07:01:10.095Z,20.80
2022-12-23T07:03:37.136Z,22.50
2022-12-23T07:06:03.939Z,22.45
2022-12-23T07:08:30.311Z,22.20
2022-12-23T07:11:01.125Z,23.20
2022-12-23T07:13:27.709Z,20.17
2022-12-23T07:15:54.158Z,21.77
2022-12-23T07:18:22.134Z,21.60
2022-12-23T07:20:49.313Z,23.75
2022-12-23T07:23:15.701Z,24.88
2022-12-23T07:25:42.515Z,23.05
2022-12-23T07:28:08.946Z,23.98
2022-12-23T07:30:35.647Z,23.45
2022-12-23T07:33:02.232Z,22.98
2022-12-23T07:35:28.705Z,23.52
2022-12-23T07:37:56.056Z,23.17
2022-12-23T07:40:23.344Z,22.52
2022-12-23T07:42:50.708Z,23.02
2022-12-23T07:45:17.147Z,23.35
2022-12-23T07:47:43.634Z,22.08
2022-12-23T07:50:10.215Z,21.95
2022-12-23T07:52:36.722Z,22.23
2022-12-23T07:55:03.602Z,22.98
2022-12-23T07:57:30.211Z,22.38
2022-12-23T07:59:57.185Z,24.45
2022-12-23T08:02:25.324Z,21.73
2022-12-23T08:04:52.098Z,21.73
2022-12-23T08:07:18.751Z,21.70
2022-12-23T08:09:45.152Z,21.40
2022-12-23T08:12:12.561Z,20.25
2022-12-23T08:14:39.013Z,21.80
2022-12-23T08:17:05.577Z,21.50
2022-12-23T08:19:33.880Z,19.88
2022-12-23T08:22:00.322Z,22.48
2022-12-23T08:24:29.120Z,21.15
2022-12-23T08:26:55.679Z,19.95
2022-12-23T08:29:22.733Z,20.27
2022-12-23T08:31:50.359Z,21.50
2022-12-23T08:34:17.356Z,22.27
2022-12-23T08:36:43.839Z,20.92
2022-12-23T08:39:11.467Z,22.77
2022-12-23T08:41:44.475Z,19.70
2022-12-23T08:44:11.288Z,22.90
2022-12-23T08:46:38.535Z,21.80
2022-12-23T08:49:05.788Z,21.08
2022-12-23T08:51:32.635Z,20.10
2022-12-23T08:54:01.458Z,19.50
2022-12-23T08:56:39.111Z,21.27
2022-12-23T08:59:06.154Z,22.58
2022-12-23T09:01:34.492Z,20.63
2022-12-23T09:04:05.608Z,21.63
2022-12-23T09:06:38.107Z,19.65
2022-12-23T09:09:06.115Z,22.10
2022-12-23T09:11:33.555Z,20.27
2022-12-23T09:14:02.225Z,22.08
2022-12-23T09:16:29.600Z,22.77
2022-12-23T09:18:56.486Z,23.98
2022-12-23T09:21:24.354Z,23.27
2022-12-23T09:23:51.430Z,20.55
2022-12-23T09:26:28.115Z,21.90
2022-12-23T09:28:55.714Z,23.33
2022-12-23T09:31:23.159Z,24.70
2022-12-23T09:33:52.192Z,24.58
2022-12-23T09:36:19.385Z,24.20
2022-12-23T09:38:49.686Z,25.35
2022-12-23T09:41:35.135Z,25.65
2022-12-23T09:44:21.449Z,26.10
2022-12-23T09:46:53.522Z,26.15
2022-12-23T09:49:22.202Z,27.05
2022-12-23T09:51:52.426Z,24.67
2022-12-23T09:54:28.843Z,26.02
2022-12-23T09:57:02.929Z,23.73
2022-12-23T10:00:07.226Z,28.13
2022-12-23T10:02:50.848Z,25.27
2022-12-23T10:05:20.976Z,24.42
2022-12-23T10:07:58.179Z,23.33
2022-12-23T10:10:48.353Z,23.35
2022-12-23T10:13:26.978Z,22.20
2022-12-23T10:15:55.149Z,22.00
2022-12-23T10:18:47.788Z,23.30
2022-12-23T10:21:35.021Z,24.08
2022-12-23T10:24:10.081Z,24.90
2022-12-23T10:26:48.691Z,24.40
2022-12-23T10:29:27.043Z,24.50
2022-12-23T10:32:14.704Z,24.13
2022-12-23T10:35:16.080Z,24.10
2022-12-23T10:37:51.514Z,24.92
2022-12-23T10:40:32.793Z,25.02
2022-12-23T10:43:38.262Z,24.25
2022-12-23T10:46:43.739Z,24.80
2022-12-23T10:49:21.232Z,24.45
2022-12-23T10:51:58.526Z,22.98
2022-12-23T10:54:36.389Z,24.90
2022-12-23T10:57:05.395Z,22.15
2022-12-23T10:59:35.094Z,23.40
2022-12-23T11:02:24.858Z,24.30
2022-12-23T11:04:51.615Z,24.20
2022-12-23T11:07:45.344Z,23.98
2022-12-23T11:10:22.023Z,23.73
2022-12-23T11:12:52.482Z,22.40
2022-12-23T11:15:35.373Z,24.05
2022-12-23T11:18:04.303Z,22.48
2022-12-23T11:20:31.871Z,22.60
2022-12-23T11:23:04.309Z,21.67
2022-12-23T11:25:42.473Z,23.52
2022-12-23T11:28:11.665Z,21.45
2022-12-23T11:30:55.621Z,20.95
2022-12-23T11:33:30.113Z,21.55
2022-12-23T11:36:23.742Z,20.92
2022-12-23T11:39:19.249Z,20.92
2022-12-23T11:41:49.627Z,20.92
2022-12-23T11:44:37.811Z,23.43
2022-12-23T11:47:22.850Z,21.10
2022-12-23T11:49:55.234Z,21.70
2022-12-23T11:52:30.400Z,22.23
2022-12-23T11:54:59.914Z,20.17
2022-12-23T11:57:42.877Z,20.05
2022-12-23T12:00:21.695Z,22.52
2022-12-23T12:03:03.281Z,20.98
2022-12-23T12:05:46.715Z,21.52
2022-12-23T12:08:21.265Z,23.02
2022-12-23T12:10:52.022Z,23.42
2022-12-23T12:13:28.454Z,22.83
2022-12-23T12:16:13.659Z,22.23
2022-12-23T12:18:43.550Z,22.20
2022-12-23T12:21:24.009Z,20.80
2022-12-23T12:24:14.717Z,21.67
2022-12-23T12:26:41.583Z,21.10
2022-12-23T12:29:22.489Z,18.50
2022-12-23T12:31:53.297Z,19.77
2022-12-23T12:34:38.645Z,17.92
2022-12-23T12:37:21.775Z,18.90
2022-12-23T12:40:03.886Z,17.13
2022-12-23T12:42:37.887Z,18.17
2022-12-23T12:45:20.480Z,17.92
2022-12-23T12:48:17.849Z,17.92
2022-12-23T12:51:11.279Z,16.77
2022-12-23T12:54:05.198Z,16.58
2022-12-23T12:56:41.344Z,16.00
2022-12-23T12:59:16.900Z,16.00
2022-12-23T13:02:15.502Z,17.08
2022-12-23T13:05:19.993Z,16.15
2022-12-23T13:08:21.994Z,18.67
2022-12-23T13:11:06.086Z,17.05
2022-12-23T13:14:08.227Z,17.40
2022-12-23T13:17:06.179Z,19.48
2022-12-23T13:19:47.404Z,18.90
2022-12-23T13:22:22.082Z,19.40
2022-12-23T13:25:01.983Z,19.30
2022-12-23T13:27:49.714Z,18.63
2022-12-23T13:30:19.095Z,18.48
2022-12-23T13:32:55.950Z,18.88
2022-12-23T13:35:39.346Z,18.10
2022-12-23T13:38:25.382Z,18.30
2022-12-23T13:41:27.059Z,18.23
2022-12-23T13:43:57.167Z,18.25
2022-12-23T13:46:49.107Z,18.73
2022-12-23T13:49:28.036Z,18.23
2022-12-23T13:52:15.842Z,21.08
2022-12-23T13:54:58.977Z,21.90
2022-12-23T13:57:28.512Z,25.80
2022-12-23T14:00:05.858Z,26.40
2022-12-23T14:02:41.723Z,24.52
2022-12-23T14:05:40.905Z,24.23
2022-12-23T14:08:19.691Z,25.27
2022-12-23T14:10:57.330Z,25.27
2022-12-23T14:13:45.912Z,25.48
2022-12-23T14:16:24.243Z,26.27
2022-12-23T14:18:53.376Z,25.35
2022-12-23T14:21:43.222Z,25.08
2022-12-23T14:24:34.441Z,26.25
2022-12-23T14:27:26.064Z,26.42
2022-12-23T14:30:21.884Z,23.15
2022-12-23T14:32:59.487Z,25.92
2022-12-23T14:35:27.949Z,24.38
2022-12-23T14:38:16.749Z,25.88
2022-12-23T14:40:43.369Z,24.80
2022-12-23T14:43:25.447Z,26.85
2022-12-23T14:45:57.122Z,26.23
2022-12-23T14:48:37.147Z,26.65
2022-12-23T14:51:09.639Z,26.92
2022-12-23T14:53:57.433Z,26.50
2022-12-23T14:56:39.104Z,27.20
2022-12-23T14:59:15.129Z,25.13
2022-12-23T15:01:52.682Z,26.88
2022-12-23T15:04:45.511Z,26.48
2022-12-23T15:07:19.136Z,29.55
2022-12-23T15:10:00.296Z,28.02
2022-12-23T15:12:32.751Z,25.92
2022-12-23T15:15:05.517Z,25.02
2022-12-23T15:17:35.831Z,26.55
2022-12-23T15:20:04.665Z,25.75
2022-12-23T15:22:32.763Z,26.08
2022-12-23T15:24:59.265Z,26.55
2022-12-23T15:27:29.759Z,25.98
2022-12-23T15:29:57.575Z,26.33
2022-12-23T15:32:25.691Z,27.00
2022-12-23T15:34:56.383Z,28.40
2022-12-23T15:37:29.337Z,26.95
2022-12-23T15:40:06.124Z,26.48
2022-12-23T15:42:38.511Z,27.25
2022-12-23T15:45:30.279Z,24.48
2022-12-23T15:47:57.708Z,26.85
2022-12-23T15:50:24.435Z,27.83
2022-12-23T15:52:54.354Z,27.38
2022-12-23T15:55:25.561Z,27.02
2022-12-23T15:57:53.169Z,26.98
2022-12-23T16:00:34.784Z,24.60
2022-12-23T16:03:03.355Z,24.05
2022-12-23T16:05:38.262Z,25.88
2022-12-23T16:08:11.026Z,24.08
2022-12-23T16:10:38.396Z,23.00
2022-12-23T16:13:04.898Z,27.55
2022-12-23T16:15:32.713Z,26.00
2022-12-23T16:18:25.285Z,24.92
2022-12-23T16:20:55.294Z,24.33
2022-12-23T16:23:22.436Z,25.48
2022-12-23T16:25:52.814Z,25.98
2022-12-23T16:28:24.273Z,26.20
2022-12-23T16:30:57.299Z,26.27
2022-12-23T16:33:36.603Z,25.05
2022-12-23T16:36:24.753Z,26.13
2022-12-23T16:39:02.392Z,26.13
2022-12-23T16:41:28.858Z,24.42
2022-12-23T16:43:55.239Z,24.67
2022-12-23T16:46:23.276Z,25.25
2022-12-23T16:49:01.863Z,24.63
2022-12-23T16:51:33.455Z,26.13
2022-12-23T16:54:00.634Z,25.35
2022-12-23T16:56:36.391Z,24.92
2022-12-23T16:59:03.935Z,24.48
2022-12-23T17:01:33.201Z,25.33
2022-12-23T17:03:59.688Z,24.20
2022-12-23T17:06:26.607Z,27.15
2022-12-23T17:08:53.451Z,28.08
2022-12-23T17:11:34.155Z,28.35
2022-12-23T17:14:05.664Z,27.40
2022-12-23T17:16:34.482Z,27.80
2022-12-23T17:19:01.236Z,27.65
2022-12-23T17:21:33.794Z,28.73
2022-12-23T17:24:26.898Z,29.20
2022-12-23T17:26:54.239Z,26.73
2022-12-23T17:29:20.762Z,27.83
2022-12-23T17:31:50.088Z,26.17
2022-12-23T17:34:19.249Z,25.13
2022-12-23T17:36:49.910Z,27.08
2022-12-23T17:39:17.077Z,24.77
2022-12-23T17:41:43.605Z,24.35
2022-12-23T17:44:13.893Z,22.83
2022-12-23T17:46:40.346Z,24.80
2022-12-23T17:49:06.740Z,24.73
2022-12-23T17:51:33.530Z,25.85
2022-12-23T17:54:00.347Z,27.35
2022-12-23T17:56:28.510Z,27.65
2022-12-23T17:58:55.199Z,26.98
2022-12-23T18:01:24.392Z,30.92
2022-12-23T18:03:51.156Z,27.13
2022-12-23T18:06:20.339Z,23.63
2022-12-23T18:08:47.197Z,24.17
2022-12-23T18:11:34.611Z,24.98
2022-12-23T18:14:02.332Z,23.33
2022-12-23T18:16:28.952Z,24.67
2022-12-23T18:18:56.409Z,24.45
2022-12-23T18:21:25.791Z,23.88
2022-12-23T18:23:54.686Z,22.88
2022-12-23T18:26:21.422Z,24.73
2022-12-23T18:28:47.845Z,24.88
2022-12-23T18:31:17.295Z,25.08
2022-12-23T18:33:43.936Z,24.02
2022-12-23T18:36:36.548Z,25.40
2022-12-23T18:39:03.051Z,25.02
2022-12-23T18:41:29.502Z,25.70
2022-12-23T18:43:56.454Z,27.67
2022-12-23T18:46:23.079Z,24.70
2022-12-23T18:48:49.516Z,26.45
2022-12-23T18:51:18.584Z,26.05
2022-12-23T18:53:45.923Z,27.13
2022-12-23T18:56:14.206Z,27.15
2022-12-23T18:58:40.875Z,26.85
2022-12-23T19:01:14.609Z,27.92
2022-12-23T19:03:42.029Z,24.80
2022-12-23T19:06:11.303Z,25.73
2022-12-23T19:08:38.071Z,27.13
2022-12-23T19:11:18.884Z,25.27
2022-12-23T19:13:46.485Z,26.55
2022-12-23T19:16:15.706Z,26.98
2022-12-23T19:18:42.446Z,28.20
2022-12-23T19:21:09.360Z,27.60
2022-12-23T19:23:36.121Z,28.60
2022-12-23T19:26:04.273Z,25.95
2022-12-23T19:28:30.766Z,26.17
2022-12-23T19:30:58.124Z,27.10
2022-12-23T19:33:24.697Z,26.20
2022-12-23T19:35:51.057Z,26.45
2022-12-23T19:38:18.239Z,26.55
2022-12-23T19:40:44.692Z,26.73
2022-12-23T19:43:11.075Z,26.38
2022-12-23T19:45:37.614Z,27.08
2022-12-23T19:48:04.185Z,25.25
2022-12-23T19:50:30.692Z,26.90
2022-12-23T19:52:57.341Z,26.90
2022-12-23T19:55:24.018Z,25.42
2022-12-23T19:57:50.441Z,25.10
2022-12-23T20:00:16.932Z,25.35
2022-12-23T20:02:43.327Z,25.17
2022-12-23T20:05:10.107Z,25.77
2022-12-23T20:07:37.108Z,24.73
2022-12-23T20:10:04.952Z,23.65
2022-12-23T20:12:31.350Z,25.23
2022-12-23T20:14:57.893Z,23.65
2022-12-23T20:17:24.273Z,26.00
2022-12-23T20:19:50.753Z,25.65
2022-12-23T20:22:17.264Z,25.25
2022-12-23T20:24:43.703Z,23.67
2022-12-23T20:27:12.115Z,25.45
2022-12-23T20:29:39.153Z,26.05
2022-12-23T20:32:05.784Z,24.45
2022-12-23T20:34:39.104Z,23.45
2022-12-23T20:37:06.629Z,23.33
2022-12-23T20:39:33.084Z,23.35
2022-12-23T20:41:59.519Z,24.08
2022-12-23T20:44:34.895Z,21.63
2022-12-23T20:47:02.882Z,24.00
2022-12-23T20:49:29.474Z,22.65
2022-12-23T20:51:55.897Z,23.15
2022-12-23T20:54:27.859Z,23.65
2022-12-23T20:56:58.815Z,22.98
2022-12-23T20:59:25.245Z,21.95
2022-12-23T21:01:52.167Z,23.65
2022-12-23T21:04:18.798Z,22.23
2022-12-23T21:06:45.581Z,22.42
2022-12-23T21:09:14.567Z,23.48
2022-12-23T21:11:43.485Z,23.70
2022-12-23T21:14:10.313Z,21.50
2022-12-23T21:16:38.438Z,22.85
2022-12-23T21:19:06.651Z,22.25
2022-12-23T21:21:33.074Z,21.45
2022-12-23T21:24:02.202Z,23.10
2022-12-23T21:26:30.671Z,21.90
2022-12-23T21:29:00.819Z,22.38
2022-12-23T21:31:30.072Z,22.42
2022-12-23T21:33:57.559Z,21.00
2022-12-23T21:36:26.773Z,20.77
2022-12-23T21:38:53.711Z,20.77
2022-12-23T21:41:22.562Z,21.13
2022-12-23T21:43:50.270Z,21.08
2022-12-23T21:46:19.355Z,21.13
2022-12-23T21:48:47.201Z,21.73
2022-12-23T21:51:20.255Z,22.30
2022-12-23T21:53:50.145Z,22.90
2022-12-23T21:56:18.963Z,21.08
2022-12-23T21:58:45.886Z,23.25
2022-12-23T22:01:16.452Z,21.23
2022-12-23T22:03:46.551Z,21.80
2022-12-23T22:06:19.151Z,23.08
2022-12-23T22:08:45.948Z,22.27
2022-12-23T22:11:15.620Z,21.98
2022-12-23T22:13:42.757Z,22.08
2022-12-23T22:16:12.034Z,20.45
2022-12-23T22:18:39.320Z,20.90
2022-12-23T22:21:07.607Z,19.63
2022-12-23T22:23:34.069Z,19.35
2022-12-23T22:26:00.899Z,18.10
2022-12-23T22:28:27.399Z,18.02
2022-12-23T22:30:53.901Z,18.35
2022-12-23T22:33:21.135Z,16.33
2022-12-23T22:35:55.634Z,16.45
2022-12-23T22:38:22.129Z,17.35
2022-12-23T22:40:49.584Z,16.88
2022-12-23T22:43:16.254Z,15.75
2022-12-23T22:45:42.763Z,15.77
2022-12-23T22:48:09.411Z,16.65
2022-12-23T22:50:36.038Z,15.07
2022-12-23T22:53:02.530Z,14.55
2022-12-23T22:55:28.940Z,13.88
2022-12-23T22:57:55.463Z,14.05
2022-12-23T23:00:21.927Z,13.82
2022-12-23T23:02:48.334Z,15.18
2022-12-23T23:05:14.742Z,14.20
2022-12-23T23:07:41.210Z,13.93
2022-12-23T23:10:08.298Z,15.77
2022-12-23T23:12:34.793Z,14.68
2022-12-23T23:15:01.273Z,13.55
2022-12-23T23:17:28.909Z,14.13
2022-12-23T23:19:55.616Z,13.70
2022-12-23T23:22:23.419Z,13.43
2022-12-23T23:24:49.930Z,13.63
2022-12-23T23:27:16.411Z,13.15
2022-12-23T23:29:43.163Z,13.52
2022-12-23T23:32:10.360Z,14.07
2022-12-23T23:34:37.105Z,13.98
2022-12-23T23:37:05.030Z,13.88
2022-12-23T23:39:31.494Z,14.07
2022-12-23T23:41:58.410Z,13.40
2022-12-23T23:44:24.916Z,13.45
2022-12-23T23:46:51.297Z,13.63
2022-12-23T23:49:21.539Z,14.00
2022-12-23T23:51:47.939Z,14.10
2022-12-23T23:54:14.355Z,13.45
2022-12-23T23:56:40.750Z,13.23
2022-12-23T23:59:08.913Z,13.95
